sensor_id;sensor_type;location;lat;lon;timestamp;P1;durP1;ratioP1;P2;durP2;ratioP2
44704;SDS011;30431;48.520;9.046;2022-11-20T00:01:30;7.47;;;4.13;;
44704;SDS011;30431;48.520;9.046;2022-11-20T00:03:59;6.93;;;3.60;;
44704;SDS011;30431;48.520;9.046;2022-11-20T00:06:27;8.15;;;3.75;;
44704;SDS011;30431;48.520;9.046;2022-11-20T00:08:55;5.18;;;3.67;;
44704;SDS011;30431;48.520;9.046;2022-11-20T00:11:27;6.25;;;4.05;;
44704;SDS011;30431;48.520;9.046;2022-11-20T00:13:56;5.75;;;3.67;;
44704;SDS011;30431;48.520;9.046;2022-11-20T00:16:28;8.93;;;4.20;;
44704;SDS011;30431;48.520;9.046;2022-11-20T00:18:56;8.88;;;4.38;;
44704;SDS011;30431;48.520;9.046;2022-11-20T00:21:25;6.78;;;3.90;;
44704;SDS011;30431;48.520;9.046;2022-11-20T00:23:56;9.13;;;4.50;;
44704;SDS011;30431;48.520;9.046;2022-11-20T00:26:27;6.10;;;4.32;;
44704;SDS011;30431;48.520;9.046;2022-11-20T00:28:56;6.63;;;4.45;;
44704;SDS011;30431;48.520;9.046;2022-11-20T00:31:27;9.35;;;5.43;;
44704;SDS011;30431;48.520;9.046;2022-11-20T00:33:55;11.13;;;6.20;;
44704;SDS011;30431;48.520;9.046;2022-11-20T00:36:23;17.50;;;8.98;;
44704;SDS011;30431;48.520;9.046;2022-11-20T00:38:53;12.93;;;7.82;;
44704;SDS011;30431;48.520;9.046;2022-11-20T00:41:26;9.15;;;5.72;;
44704;SDS011;30431;48.520;9.046;2022-11-20T00:43:55;9.05;;;5.13;;
44704;SDS011;30431;48.520;9.046;2022-11-20T00:46:23;6.93;;;4.53;;
44704;SDS011;30431;48.520;9.046;2022-11-20T00:48:52;6.07;;;4.30;;
44704;SDS011;30431;48.520;9.046;2022-11-20T00:53:47;5.53;;;3.60;;
44704;SDS011;30431;48.520;9.046;2022-11-20T00:56:15;6.50;;;4.00;;
44704;SDS011;30431;48.520;9.046;2022-11-20T00:58:44;8.45;;;4.80;;
44704;SDS011;30431;48.520;9.046;2022-11-20T01:01:19;7.53;;;4.20;;
44704;SDS011;30431;48.520;9.046;2022-11-20T01:03:51;6.20;;;4.63;;
44704;SDS011;30431;48.520;9.046;2022-11-20T01:08:52;7.35;;;4.40;;
44704;SDS011;30431;48.520;9.046;2022-11-20T01:11:23;14.15;;;9.50;;
44704;SDS011;30431;48.520;9.046;2022-11-20T01:13:55;9.52;;;6.03;;
44704;SDS011;30431;48.520;9.046;2022-11-20T01:16:27;9.15;;;5.70;;
44704;SDS011;30431;48.520;9.046;2022-11-20T01:18:59;8.85;;;5.38;;
44704;SDS011;30431;48.520;9.046;2022-11-20T01:21:28;7.22;;;5.32;;
44704;SDS011;30431;48.520;9.046;2022-11-20T01:23:59;9.43;;;5.53;;
44704;SDS011;30431;48.520;9.046;2022-11-20T01:26:32;7.57;;;5.45;;
44704;SDS011;30431;48.520;9.046;2022-11-20T01:29:02;8.02;;;5.10;;
44704;SDS011;30431;48.520;9.046;2022-11-20T01:31:34;9.23;;;5.97;;
44704;SDS011;30431;48.520;9.046;2022-11-20T01:34:07;7.97;;;5.50;;
44704;SDS011;30431;48.520;9.046;2022-11-20T01:36:37;8.68;;;5.40;;
44704;SDS011;30431;48.520;9.046;2022-11-20T01:39:06;9.07;;;5.50;;
44704;SDS011;30431;48.520;9.046;2022-11-20T01:41:36;8.43;;;5.60;;
44704;SDS011;30431;48.520;9.046;2022-11-20T01:44:45;8.82;;;5.38;;
44704;SDS011;30431;48.520;9.046;2022-11-20T01:47:17;9.23;;;5.55;;
44704;SDS011;30431;48.520;9.046;2022-11-20T01:49:53;7.45;;;5.53;;
44704;SDS011;30431;48.520;9.046;2022-11-20T01:52:26;8.05;;;5.88;;
44704;SDS011;30431;48.520;9.046;2022-11-20T01:55:09;8.15;;;5.30;;
44704;SDS011;30431;48.520;9.046;2022-11-20T01:57:43;7.32;;;5.70;;
44704;SDS011;30431;48.520;9.046;2022-11-20T02:00:15;8.93;;;5.80;;
44704;SDS011;30431;48.520;9.046;2022-11-20T02:02:48;6.82;;;5.15;;
44704;SDS011;30431;48.520;9.046;2022-11-20T02:05:38;7.20;;;5.20;;
44704;SDS011;30431;48.520;9.046;2022-11-20T02:08:26;6.93;;;5.03;;
44704;SDS011;30431;48.520;9.046;2022-11-20T02:10:54;7.50;;;5.00;;
44704;SDS011;30431;48.520;9.046;2022-11-20T02:13:22;7.82;;;5.10;;
44704;SDS011;30431;48.520;9.046;2022-11-20T02:16:14;6.68;;;4.88;;
44704;SDS011;30431;48.520;9.046;2022-11-20T02:18:50;7.38;;;5.25;;
44704;SDS011;30431;48.520;9.046;2022-11-20T02:24:18;6.85;;;5.10;;
44704;SDS011;30431;48.520;9.046;2022-11-20T02:26:50;8.73;;;5.53;;
44704;SDS011;30431;48.520;9.046;2022-11-20T02:31:52;8.95;;;5.82;;
44704;SDS011;30431;48.520;9.046;2022-11-20T02:34:21;9.27;;;5.95;;
44704;SDS011;30431;48.520;9.046;2022-11-20T02:36:53;9.20;;;6.07;;
44704;SDS011;30431;48.520;9.046;2022-11-20T02:39:20;11.10;;;6.78;;
44704;SDS011;30431;48.520;9.046;2022-11-20T02:41:52;9.98;;;6.10;;
44704;SDS011;30431;48.520;9.046;2022-11-20T02:44:20;7.13;;;5.70;;
44704;SDS011;30431;48.520;9.046;2022-11-20T02:46:49;10.05;;;5.60;;
44704;SDS011;30431;48.520;9.046;2022-11-20T02:49:19;10.27;;;5.60;;
44704;SDS011;30431;48.520;9.046;2022-11-20T02:51:48;8.63;;;5.45;;
44704;SDS011;30431;48.520;9.046;2022-11-20T02:54:18;10.45;;;5.93;;
44704;SDS011;30431;48.520;9.046;2022-11-20T02:56:47;7.15;;;5.10;;
44704;SDS011;30431;48.520;9.046;2022-11-20T02:59:18;9.40;;;5.30;;
44704;SDS011;30431;48.520;9.046;2022-11-20T03:01:48;8.07;;;5.18;;
44704;SDS011;30431;48.520;9.046;2022-11-20T03:04:15;8.27;;;5.65;;
44704;SDS011;30431;48.520;9.046;2022-11-20T03:06:46;7.20;;;5.25;;
44704;SDS011;30431;48.520;9.046;2022-11-20T03:09:13;11.50;;;6.10;;
44704;SDS011;30431;48.520;9.046;2022-11-20T03:11:42;7.38;;;5.07;;
44704;SDS011;30431;48.520;9.046;2022-11-20T03:14:09;7.55;;;5.82;;
44704;SDS011;30431;48.520;9.046;2022-11-20T03:16:36;6.63;;;5.25;;
44704;SDS011;30431;48.520;9.046;2022-11-20T03:19:03;11.00;;;5.15;;
44704;SDS011;30431;48.520;9.046;2022-11-20T03:21:30;7.93;;;5.03;;
44704;SDS011;30431;48.520;9.046;2022-11-20T03:24:00;7.25;;;4.60;;
44704;SDS011;30431;48.520;9.046;2022-11-20T03:26:28;7.32;;;4.70;;
44704;SDS011;30431;48.520;9.046;2022-11-20T03:28:59;13.73;;;5.03;;
44704;SDS011;30431;48.520;9.046;2022-11-20T03:31:30;6.30;;;4.35;;
44704;SDS011;30431;48.520;9.046;2022-11-20T03:33:59;6.20;;;4.22;;
44704;SDS011;30431;48.520;9.046;2022-11-20T03:36:27;7.13;;;4.28;;
44704;SDS011;30431;48.520;9.046;2022-11-20T03:38:59;5.03;;;3.70;;
44704;SDS011;30431;48.520;9.046;2022-11-20T03:41:27;7.30;;;4.10;;
44704;SDS011;30431;48.520;9.046;2022-11-20T03:46:25;7.78;;;3.60;;
44704;SDS011;30431;48.520;9.046;2022-11-20T03:48:52;5.55;;;3.33;;
44704;SDS011;30431;48.520;9.046;2022-11-20T03:51:21;5.57;;;3.50;;
44704;SDS011;30431;48.520;9.046;2022-11-20T03:53:49;7.00;;;3.50;;
44704;SDS011;30431;48.520;9.046;2022-11-20T03:56:18;5.05;;;3.17;;
44704;SDS011;30431;48.520;9.046;2022-11-20T03:58:48;5.82;;;3.30;;
44704;SDS011;30431;48.520;9.046;2022-11-20T04:01:18;7.20;;;2.97;;
44704;SDS011;30431;48.520;9.046;2022-11-20T04:03:47;3.80;;;2.90;;
44704;SDS011;30431;48.520;9.046;2022-11-20T04:08:46;6.18;;;2.97;;
44704;SDS011;30431;48.520;9.046;2022-11-20T04:13:49;5.45;;;3.50;;
44704;SDS011;30431;48.520;9.046;2022-11-20T04:16:21;4.75;;;2.83;;
44704;SDS011;30431;48.520;9.046;2022-11-20T04:18:52;4.50;;;3.10;;
44704;SDS011;30431;48.520;9.046;2022-11-20T04:21:20;5.55;;;3.10;;
44704;SDS011;30431;48.520;9.046;2022-11-20T04:23:49;6.28;;;3.00;;
44704;SDS011;30431;48.520;9.046;2022-11-20T04:26:19;4.18;;;2.75;;
44704;SDS011;30431;48.520;9.046;2022-11-20T04:28:48;5.30;;;2.85;;
44704;SDS011;30431;48.520;9.046;2022-11-20T04:31:17;6.70;;;3.17;;
44704;SDS011;30431;48.520;9.046;2022-11-20T04:33:50;4.50;;;2.97;;
44704;SDS011;30431;48.520;9.046;2022-11-20T04:36:27;5.68;;;3.28;;
44704;SDS011;30431;48.520;9.046;2022-11-20T04:38:58;4.97;;;2.85;;
44704;SDS011;30431;48.520;9.046;2022-11-20T04:41:31;3.88;;;2.85;;
44704;SDS011;30431;48.520;9.046;2022-11-20T04:44:02;4.18;;;2.90;;
44704;SDS011;30431;48.520;9.046;2022-11-20T04:46:31;5.53;;;2.83;;
44704;SDS011;30431;48.520;9.046;2022-11-20T04:49:03;3.45;;;2.50;;
44704;SDS011;30431;48.520;9.046;2022-11-20T04:51:34;3.35;;;2.50;;
44704;SDS011;30431;48.520;9.046;2022-11-20T04:58:55;3.88;;;2.33;;
44704;SDS011;30431;48.520;9.046;2022-11-20T05:01:24;4.00;;;2.45;;
44704;SDS011;30431;48.520;9.046;2022-11-20T05:03:51;3.15;;;2.03;;
44704;SDS011;30431;48.520;9.046;2022-11-20T05:06:19;2.67;;;2.05;;
44704;SDS011;30431;48.520;9.046;2022-11-20T05:08:47;3.25;;;2.05;;
44704;SDS011;30431;48.520;9.046;2022-11-20T05:11:15;5.18;;;2.50;;
44704;SDS011;30431;48.520;9.046;2022-11-20T05:13:49;5.18;;;2.40;;
44704;SDS011;30431;48.520;9.046;2022-11-20T05:16:19;2.30;;;1.80;;
44704;SDS011;30431;48.520;9.046;2022-11-20T05:18:48;3.90;;;2.30;;
44704;SDS011;30431;48.520;9.046;2022-11-20T05:21:16;2.45;;;1.90;;
44704;SDS011;30431;48.520;9.046;2022-11-20T05:23:46;2.83;;;2.00;;
44704;SDS011;30431;48.520;9.046;2022-11-20T05:26:22;4.20;;;2.60;;
44704;SDS011;30431;48.520;9.046;2022-11-20T05:28:49;3.20;;;2.28;;
44704;SDS011;30431;48.520;9.046;2022-11-20T05:31:20;4.75;;;2.45;;
44704;SDS011;30431;48.520;9.046;2022-11-20T05:33:52;4.07;;;2.10;;
44704;SDS011;30431;48.520;9.046;2022-11-20T05:36:20;4.55;;;2.97;;
44704;SDS011;30431;48.520;9.046;2022-11-20T05:38:49;4.32;;;2.20;;
44704;SDS011;30431;48.520;9.046;2022-11-20T05:41:20;4.60;;;2.50;;
44704;SDS011;30431;48.520;9.046;2022-11-20T05:43:48;4.22;;;2.35;;
44704;SDS011;30431;48.520;9.046;2022-11-20T05:46:17;3.63;;;2.45;;
44704;SDS011;30431;48.520;9.046;2022-11-20T05:48:54;3.25;;;2.20;;
44704;SDS011;30431;48.520;9.046;2022-11-20T05:51:22;3.25;;;2.20;;
44704;SDS011;30431;48.520;9.046;2022-11-20T05:53:57;3.20;;;2.05;;
44704;SDS011;30431;48.520;9.046;2022-11-20T05:56:24;4.07;;;2.20;;
44704;SDS011;30431;48.520;9.046;2022-11-20T05:58:51;4.13;;;2.20;;
44704;SDS011;30431;48.520;9.046;2022-11-20T06:01:22;4.75;;;2.38;;
44704;SDS011;30431;48.520;9.046;2022-11-20T06:03:50;3.53;;;2.25;;
44704;SDS011;30431;48.520;9.046;2022-11-20T06:06:21;3.75;;;2.25;;
44704;SDS011;30431;48.520;9.046;2022-11-20T06:08:49;5.90;;;2.80;;
44704;SDS011;30431;48.520;9.046;2022-11-20T06:11:16;4.20;;;2.17;;
44704;SDS011;30431;48.520;9.046;2022-11-20T06:13:44;5.55;;;2.30;;
44704;SDS011;30431;48.520;9.046;2022-11-20T06:16:14;3.30;;;2.22;;
44704;SDS011;30431;48.520;9.046;2022-11-20T06:18:45;4.10;;;2.40;;
44704;SDS011;30431;48.520;9.046;2022-11-20T06:21:13;4.18;;;2.33;;
44704;SDS011;30431;48.520;9.046;2022-11-20T06:23:42;2.17;;;1.85;;
44704;SDS011;30431;48.520;9.046;2022-11-20T06:26:12;3.83;;;2.22;;
44704;SDS011;30431;48.520;9.046;2022-11-20T06:28:43;4.00;;;2.40;;
44704;SDS011;30431;48.520;9.046;2022-11-20T06:31:14;3.08;;;2.22;;
44704;SDS011;30431;48.520;9.046;2022-11-20T06:33:43;4.20;;;2.30;;
44704;SDS011;30431;48.520;9.046;2022-11-20T06:36:10;3.42;;;2.13;;
44704;SDS011;30431;48.520;9.046;2022-11-20T06:38:39;2.83;;;1.92;;
44704;SDS011;30431;48.520;9.046;2022-11-20T06:41:07;3.15;;;1.90;;
44704;SDS011;30431;48.520;9.046;2022-11-20T06:43:37;3.47;;;2.13;;
44704;SDS011;30431;48.520;9.046;2022-11-20T06:46:08;6.18;;;2.22;;
44704;SDS011;30431;48.520;9.046;2022-11-20T06:48:38;2.92;;;2.28;;
44704;SDS011;30431;48.520;9.046;2022-11-20T06:51:13;2.88;;;2.05;;
44704;SDS011;30431;48.520;9.046;2022-11-20T06:53:41;3.42;;;2.05;;
44704;SDS011;30431;48.520;9.046;2022-11-20T06:56:12;2.97;;;2.10;;
44704;SDS011;30431;48.520;9.046;2022-11-20T06:58:41;4.10;;;2.40;;
44704;SDS011;30431;48.520;9.046;2022-11-20T07:01:09;3.33;;;2.22;;
44704;SDS011;30431;48.520;9.046;2022-11-20T07:03:43;3.25;;;2.00;;
44704;SDS011;30431;48.520;9.046;2022-11-20T07:06:19;3.45;;;2.30;;
44704;SDS011;30431;48.520;9.046;2022-11-20T07:08:46;4.90;;;2.30;;
44704;SDS011;30431;48.520;9.046;2022-11-20T07:11:13;5.63;;;2.13;;
44704;SDS011;30431;48.520;9.046;2022-11-20T07:13:43;3.10;;;2.05;;
44704;SDS011;30431;48.520;9.046;2022-11-20T07:16:15;4.15;;;2.55;;
44704;SDS011;30431;48.520;9.046;2022-11-20T07:21:15;8.90;;;3.67;;
44704;SDS011;30431;48.520;9.046;2022-11-20T07:23:42;6.95;;;3.70;;
44704;SDS011;30431;48.520;9.046;2022-11-20T07:26:10;3.10;;;2.08;;
44704;SDS011;30431;48.520;9.046;2022-11-20T07:28:37;7.45;;;2.30;;
44704;SDS011;30431;48.520;9.046;2022-11-20T07:31:10;4.63;;;2.40;;
44704;SDS011;30431;48.520;9.046;2022-11-20T07:33:44;2.92;;;2.15;;
44704;SDS011;30431;48.520;9.046;2022-11-20T07:36:11;4.28;;;2.40;;
44704;SDS011;30431;48.520;9.046;2022-11-20T07:38:38;3.67;;;2.38;;
44704;SDS011;30431;48.520;9.046;2022-11-20T07:41:05;4.60;;;2.35;;
44704;SDS011;30431;48.520;9.046;2022-11-20T07:43:32;3.85;;;2.13;;
44704;SDS011;30431;48.520;9.046;2022-11-20T07:46:06;3.25;;;2.20;;
44704;SDS011;30431;48.520;9.046;2022-11-20T07:48:35;4.35;;;2.28;;
44704;SDS011;30431;48.520;9.046;2022-11-20T07:51:02;2.25;;;1.80;;
44704;SDS011;30431;48.520;9.046;2022-11-20T07:53:31;2.95;;;2.00;;
44704;SDS011;30431;48.520;9.046;2022-11-20T07:55:59;4.68;;;2.15;;
44704;SDS011;30431;48.520;9.046;2022-11-20T07:58:28;3.40;;;1.92;;
44704;SDS011;30431;48.520;9.046;2022-11-20T08:01:04;3.45;;;2.05;;
44704;SDS011;30431;48.520;9.046;2022-11-20T08:03:40;2.78;;;1.80;;
44704;SDS011;30431;48.520;9.046;2022-11-20T08:06:09;3.05;;;2.03;;
44704;SDS011;30431;48.520;9.046;2022-11-20T08:08:36;2.72;;;1.90;;
44704;SDS011;30431;48.520;9.046;2022-11-20T08:11:08;4.07;;;1.70;;
44704;SDS011;30431;48.520;9.046;2022-11-20T08:13:54;4.20;;;2.00;;
44704;SDS011;30431;48.520;9.046;2022-11-20T08:16:47;2.63;;;1.80;;
44704;SDS011;30431;48.520;9.046;2022-11-20T08:19:17;3.67;;;2.00;;
44704;SDS011;30431;48.520;9.046;2022-11-20T08:21:45;3.05;;;1.90;;
44704;SDS011;30431;48.520;9.046;2022-11-20T08:24:12;2.63;;;1.98;;
44704;SDS011;30431;48.520;9.046;2022-11-20T08:26:42;3.03;;;2.00;;
44704;SDS011;30431;48.520;9.046;2022-11-20T08:29:09;4.05;;;2.00;;
44704;SDS011;30431;48.520;9.046;2022-11-20T08:31:38;3.60;;;1.90;;
44704;SDS011;30431;48.520;9.046;2022-11-20T08:34:05;2.83;;;1.70;;
44704;SDS011;30431;48.520;9.046;2022-11-20T08:36:36;2.47;;;1.67;;
44704;SDS011;30431;48.520;9.046;2022-11-20T08:39:03;3.60;;;1.90;;
44704;SDS011;30431;48.520;9.046;2022-11-20T08:41:32;2.95;;;1.63;;
44704;SDS011;30431;48.520;9.046;2022-11-20T08:44:03;2.83;;;2.15;;
44704;SDS011;30431;48.520;9.046;2022-11-20T08:46:38;3.55;;;2.20;;
44704;SDS011;30431;48.520;9.046;2022-11-20T08:49:11;6.05;;;3.38;;
44704;SDS011;30431;48.520;9.046;2022-11-20T08:51:42;3.42;;;2.22;;
44704;SDS011;30431;48.520;9.046;2022-11-20T08:54:09;2.58;;;1.80;;
44704;SDS011;30431;48.520;9.046;2022-11-20T08:56:40;2.00;;;1.70;;
44704;SDS011;30431;48.520;9.046;2022-11-20T08:59:07;3.92;;;2.00;;
44704;SDS011;30431;48.520;9.046;2022-11-20T09:01:56;4.90;;;2.08;;
44704;SDS011;30431;48.520;9.046;2022-11-20T09:04:26;2.45;;;1.90;;
44704;SDS011;30431;48.520;9.046;2022-11-20T09:06:53;2.60;;;2.10;;
44704;SDS011;30431;48.520;9.046;2022-11-20T09:09:25;2.97;;;1.92;;
44704;SDS011;30431;48.520;9.046;2022-11-20T09:11:54;3.13;;;2.00;;
44704;SDS011;30431;48.520;9.046;2022-11-20T09:14:21;2.75;;;1.75;;
44704;SDS011;30431;48.520;9.046;2022-11-20T09:16:51;2.45;;;1.90;;
44704;SDS011;30431;48.520;9.046;2022-11-20T09:19:18;2.90;;;2.13;;
44704;SDS011;30431;48.520;9.046;2022-11-20T09:22:01;3.60;;;2.28;;
44704;SDS011;30431;48.520;9.046;2022-11-20T09:24:32;3.13;;;2.00;;
44704;SDS011;30431;48.520;9.046;2022-11-20T09:27:03;3.53;;;1.88;;
44704;SDS011;30431;48.520;9.046;2022-11-20T09:29:31;2.80;;;1.80;;
44704;SDS011;30431;48.520;9.046;2022-11-20T09:32:00;4.00;;;2.30;;
44704;SDS011;30431;48.520;9.046;2022-11-20T09:34:27;3.95;;;2.53;;
44704;SDS011;30431;48.520;9.046;2022-11-20T09:36:54;3.67;;;2.30;;
44704;SDS011;30431;48.520;9.046;2022-11-20T09:39:21;2.28;;;1.88;;
44704;SDS011;30431;48.520;9.046;2022-11-20T09:44:31;4.25;;;2.15;;
44704;SDS011;30431;48.520;9.046;2022-11-20T09:52:49;3.22;;;2.15;;
44704;SDS011;30431;48.520;9.046;2022-11-20T09:55:38;2.10;;;1.90;;
44704;SDS011;30431;48.520;9.046;2022-11-20T09:58:22;3.30;;;2.20;;
44704;SDS011;30431;48.520;9.046;2022-11-20T10:01:16;3.08;;;2.10;;
44704;SDS011;30431;48.520;9.046;2022-11-20T10:06:13;3.63;;;1.80;;
44704;SDS011;30431;48.520;9.046;2022-11-20T10:17:27;3.05;;;2.08;;
44704;SDS011;30431;48.520;9.046;2022-11-20T10:25:39;2.00;;;1.70;;
44704;SDS011;30431;48.520;9.046;2022-11-20T10:31:08;2.90;;;1.90;;
44704;SDS011;30431;48.520;9.046;2022-11-20T10:33:41;2.63;;;1.70;;
44704;SDS011;30431;48.520;9.046;2022-11-20T10:36:35;2.55;;;2.20;;
44704;SDS011;30431;48.520;9.046;2022-11-20T10:39:14;3.78;;;2.38;;
44704;SDS011;30431;48.520;9.046;2022-11-20T10:42:11;4.63;;;2.75;;
44704;SDS011;30431;48.520;9.046;2022-11-20T10:44:52;5.78;;;2.83;;
44704;SDS011;30431;48.520;9.046;2022-11-20T10:47:34;4.60;;;2.72;;
44704;SDS011;30431;48.520;9.046;2022-11-20T10:50:04;3.47;;;1.92;;
44704;SDS011;30431;48.520;9.046;2022-11-20T10:58:13;4.15;;;2.60;;
44704;SDS011;30431;48.520;9.046;2022-11-20T11:00:48;2.83;;;2.00;;
44704;SDS011;30431;48.520;9.046;2022-11-20T11:08:53;4.15;;;2.15;;
44704;SDS011;30431;48.520;9.046;2022-11-20T11:11:30;3.25;;;1.80;;
44704;SDS011;30431;48.520;9.046;2022-11-20T11:16:53;2.72;;;1.73;;
44704;SDS011;30431;48.520;9.046;2022-11-20T11:19:28;2.72;;;1.70;;
44704;SDS011;30431;48.520;9.046;2022-11-20T11:22:02;4.32;;;2.75;;
44704;SDS011;30431;48.520;9.046;2022-11-20T11:24:51;2.15;;;1.60;;
44704;SDS011;30431;48.520;9.046;2022-11-20T11:27:19;2.95;;;1.98;;
44704;SDS011;30431;48.520;9.046;2022-11-20T11:29:46;3.17;;;2.10;;
44704;SDS011;30431;48.520;9.046;2022-11-20T11:32:19;9.98;;;6.20;;
44704;SDS011;30431;48.520;9.046;2022-11-20T11:35:02;5.10;;;2.42;;
44704;SDS011;30431;48.520;9.046;2022-11-20T11:37:36;3.38;;;2.10;;
44704;SDS011;30431;48.520;9.046;2022-11-20T11:40:05;4.15;;;2.40;;
44704;SDS011;30431;48.520;9.046;2022-11-20T11:42:56;3.42;;;1.95;;
44704;SDS011;30431;48.520;9.046;2022-11-20T11:45:28;3.88;;;2.20;;
44704;SDS011;30431;48.520;9.046;2022-11-20T11:47:56;5.47;;;2.15;;
44704;SDS011;30431;48.520;9.046;2022-11-20T11:50:27;4.00;;;1.48;;
44704;SDS011;30431;48.520;9.046;2022-11-20T11:55:44;3.67;;;1.80;;
44704;SDS011;30431;48.520;9.046;2022-11-20T12:03:28;3.13;;;1.63;;
44704;SDS011;30431;48.520;9.046;2022-11-20T12:06:05;3.00;;;1.70;;
44704;SDS011;30431;48.520;9.046;2022-11-20T12:08:57;3.40;;;1.90;;
44704;SDS011;30431;48.520;9.046;2022-11-20T12:11:33;5.45;;;2.60;;
44704;SDS011;30431;48.520;9.046;2022-11-20T12:16:36;4.68;;;1.90;;
44704;SDS011;30431;48.520;9.046;2022-11-20T12:19:10;5.20;;;2.88;;
44704;SDS011;30431;48.520;9.046;2022-11-20T12:32:34;3.30;;;1.58;;
44704;SDS011;30431;48.520;9.046;2022-11-20T12:35:21;2.67;;;1.50;;
44704;SDS011;30431;48.520;9.046;2022-11-20T12:38:08;2.85;;;1.40;;
44704;SDS011;30431;48.520;9.046;2022-11-20T12:44:17;4.22;;;2.00;;
44704;SDS011;30431;48.520;9.046;2022-11-20T13:04:13;2.50;;;1.50;;
44704;SDS011;30431;48.520;9.046;2022-11-20T13:06:46;3.17;;;1.50;;
44704;SDS011;30431;48.520;9.046;2022-11-20T13:09:17;3.03;;;1.63;;
44704;SDS011;30431;48.520;9.046;2022-11-20T13:20:15;2.85;;;1.50;;
44704;SDS011;30431;48.520;9.046;2022-11-20T13:22:48;4.85;;;1.65;;
44704;SDS011;30431;48.520;9.046;2022-11-20T13:25:30;3.67;;;1.50;;
44704;SDS011;30431;48.520;9.046;2022-11-20T13:28:24;4.53;;;1.67;;
44704;SDS011;30431;48.520;9.046;2022-11-20T13:30:56;4.13;;;1.90;;
44704;SDS011;30431;48.520;9.046;2022-11-20T13:38:28;5.53;;;2.58;;
44704;SDS011;30431;48.520;9.046;2022-11-20T13:41:11;4.22;;;1.70;;
44704;SDS011;30431;48.520;9.046;2022-11-20T13:43:59;3.35;;;1.92;;
44704;SDS011;30431;48.520;9.046;2022-11-20T13:46:44;2.25;;;1.80;;
44704;SDS011;30431;48.520;9.046;2022-11-20T14:00:30;3.88;;;1.77;;
44704;SDS011;30431;48.520;9.046;2022-11-20T14:05:35;6.47;;;2.33;;
44704;SDS011;30431;48.520;9.046;2022-11-20T14:08:12;6.38;;;2.58;;
44704;SDS011;30431;48.520;9.046;2022-11-20T14:10:47;5.18;;;2.42;;
44704;SDS011;30431;48.520;9.046;2022-11-20T14:13:18;7.50;;;2.45;;
44704;SDS011;30431;48.520;9.046;2022-11-20T14:15:46;4.65;;;2.30;;
44704;SDS011;30431;48.520;9.046;2022-11-20T14:18:19;4.38;;;2.30;;
44704;SDS011;30431;48.520;9.046;2022-11-20T14:20:59;6.68;;;2.00;;
44704;SDS011;30431;48.520;9.046;2022-11-20T14:23:32;3.83;;;2.08;;
44704;SDS011;30431;48.520;9.046;2022-11-20T14:26:04;4.28;;;2.05;;
44704;SDS011;30431;48.520;9.046;2022-11-20T14:28:33;4.35;;;2.15;;
44704;SDS011;30431;48.520;9.046;2022-11-20T14:31:00;7.25;;;3.80;;
44704;SDS011;30431;48.520;9.046;2022-11-20T14:33:29;7.78;;;2.83;;
44704;SDS011;30431;48.520;9.046;2022-11-20T14:36:02;5.13;;;2.50;;
44704;SDS011;30431;48.520;9.046;2022-11-20T14:38:39;4.30;;;2.20;;
44704;SDS011;30431;48.520;9.046;2022-11-20T14:41:15;5.72;;;2.40;;
44704;SDS011;30431;48.520;9.046;2022-11-20T14:43:51;5.05;;;2.88;;
44704;SDS011;30431;48.520;9.046;2022-11-20T14:46:24;8.63;;;4.05;;
44704;SDS011;30431;48.520;9.046;2022-11-20T14:48:55;6.05;;;2.88;;
44704;SDS011;30431;48.520;9.046;2022-11-20T14:51:47;7.80;;;2.97;;
44704;SDS011;30431;48.520;9.046;2022-11-20T14:54:24;6.85;;;3.53;;
44704;SDS011;30431;48.520;9.046;2022-11-20T14:59:37;6.28;;;3.72;;
44704;SDS011;30431;48.520;9.046;2022-11-20T15:02:13;6.90;;;3.40;;
44704;SDS011;30431;48.520;9.046;2022-11-20T15:04:44;6.63;;;3.28;;
44704;SDS011;30431;48.520;9.046;2022-11-20T15:07:27;5.20;;;2.75;;
44704;SDS011;30431;48.520;9.046;2022-11-20T15:12:39;8.10;;;2.85;;
44704;SDS011;30431;48.520;9.046;2022-11-20T15:15:19;4.00;;;2.50;;
44704;SDS011;30431;48.520;9.046;2022-11-20T15:17:51;8.27;;;3.80;;
44704;SDS011;30431;48.520;9.046;2022-11-20T15:20:23;3.95;;;2.30;;
44704;SDS011;30431;48.520;9.046;2022-11-20T15:23:01;4.72;;;2.45;;
44704;SDS011;30431;48.520;9.046;2022-11-20T15:25:34;6.85;;;3.00;;
44704;SDS011;30431;48.520;9.046;2022-11-20T15:28:04;8.63;;;3.38;;
44704;SDS011;30431;48.520;9.046;2022-11-20T15:30:38;5.70;;;2.58;;
44704;SDS011;30431;48.520;9.046;2022-11-20T15:33:08;5.53;;;2.60;;
44704;SDS011;30431;48.520;9.046;2022-11-20T15:35:36;4.05;;;2.35;;
44704;SDS011;30431;48.520;9.046;2022-11-20T15:38:08;6.13;;;2.60;;
44704;SDS011;30431;48.520;9.046;2022-11-20T15:40:37;5.15;;;2.50;;
44704;SDS011;30431;48.520;9.046;2022-11-20T15:43:07;5.03;;;2.47;;
44704;SDS011;30431;48.520;9.046;2022-11-20T15:45:51;10.02;;;5.50;;
44704;SDS011;30431;48.520;9.046;2022-11-20T15:54:16;7.97;;;3.88;;
44704;SDS011;30431;48.520;9.046;2022-11-20T15:56:47;7.72;;;4.85;;
44704;SDS011;30431;48.520;9.046;2022-11-20T15:59:17;10.63;;;5.13;;
44704;SDS011;30431;48.520;9.046;2022-11-20T16:01:44;8.07;;;3.90;;
44704;SDS011;30431;48.520;9.046;2022-11-20T16:04:12;4.70;;;2.53;;
44704;SDS011;30431;48.520;9.046;2022-11-20T16:06:41;5.82;;;3.17;;
44704;SDS011;30431;48.520;9.046;2022-11-20T16:09:10;8.10;;;3.92;;
44704;SDS011;30431;48.520;9.046;2022-11-20T16:11:37;9.90;;;4.40;;
44704;SDS011;30431;48.520;9.046;2022-11-20T16:14:06;6.47;;;3.72;;
44704;SDS011;30431;48.520;9.046;2022-11-20T16:16:59;4.05;;;2.42;;
44704;SDS011;30431;48.520;9.046;2022-11-20T16:19:33;7.63;;;3.10;;
44704;SDS011;30431;48.520;9.046;2022-11-20T16:22:00;7.38;;;3.75;;
44704;SDS011;30431;48.520;9.046;2022-11-20T16:24:28;4.75;;;3.00;;
44704;SDS011;30431;48.520;9.046;2022-11-20T16:26:56;7.93;;;3.97;;
44704;SDS011;30431;48.520;9.046;2022-11-20T16:31:53;5.88;;;2.90;;
44704;SDS011;30431;48.520;9.046;2022-11-20T16:34:22;6.95;;;2.90;;
44704;SDS011;30431;48.520;9.046;2022-11-20T16:36:52;4.60;;;2.90;;
44704;SDS011;30431;48.520;9.046;2022-11-20T16:39:22;4.65;;;2.67;;
44704;SDS011;30431;48.520;9.046;2022-11-20T16:41:51;4.40;;;2.20;;
44704;SDS011;30431;48.520;9.046;2022-11-20T16:46:45;4.32;;;2.85;;
44704;SDS011;30431;48.520;9.046;2022-11-20T16:49:12;6.30;;;3.15;;
44704;SDS011;30431;48.520;9.046;2022-11-20T16:51:40;6.32;;;2.92;;
44704;SDS011;30431;48.520;9.046;2022-11-20T16:54:08;3.83;;;2.63;;
44704;SDS011;30431;48.520;9.046;2022-11-20T16:56:35;6.00;;;2.75;;
44704;SDS011;30431;48.520;9.046;2022-11-20T16:59:03;4.55;;;2.58;;
44704;SDS011;30431;48.520;9.046;2022-11-20T17:01:33;7.50;;;2.72;;
44704;SDS011;30431;48.520;9.046;2022-11-20T17:04:04;7.22;;;3.70;;
44704;SDS011;30431;48.520;9.046;2022-11-20T17:06:35;6.80;;;3.60;;
44704;SDS011;30431;48.520;9.046;2022-11-20T17:09:06;7.95;;;4.13;;
44704;SDS011;30431;48.520;9.046;2022-11-20T17:11:36;9.10;;;4.53;;
44704;SDS011;30431;48.520;9.046;2022-11-20T17:14:04;11.88;;;6.07;;
44704;SDS011;30431;48.520;9.046;2022-11-20T17:16:37;7.78;;;4.60;;
44704;SDS011;30431;48.520;9.046;2022-11-20T17:19:04;6.60;;;3.67;;
44704;SDS011;30431;48.520;9.046;2022-11-20T17:21:32;5.88;;;3.50;;
44704;SDS011;30431;48.520;9.046;2022-11-20T17:24:02;7.38;;;3.75;;
44704;SDS011;30431;48.520;9.046;2022-11-20T17:26:32;4.82;;;2.72;;
44704;SDS011;30431;48.520;9.046;2022-11-20T17:29:04;4.20;;;2.53;;
44704;SDS011;30431;48.520;9.046;2022-11-20T17:31:36;5.30;;;2.50;;
44704;SDS011;30431;48.520;9.046;2022-11-20T17:34:04;5.78;;;2.72;;
44704;SDS011;30431;48.520;9.046;2022-11-20T17:36:34;6.75;;;3.00;;
44704;SDS011;30431;48.520;9.046;2022-11-20T17:39:18;7.80;;;4.30;;
44704;SDS011;30431;48.520;9.046;2022-11-20T17:41:45;5.88;;;3.50;;
44704;SDS011;30431;48.520;9.046;2022-11-20T17:44:32;7.55;;;3.90;;
44704;SDS011;30431;48.520;9.046;2022-11-20T17:49:31;6.63;;;4.10;;
44704;SDS011;30431;48.520;9.046;2022-11-20T17:52:02;7.63;;;4.20;;